createdAt,value
2023-02-08T00:00:13.971Z,53.29
2023-02-08T00:01:13.978Z,53.47
2023-02-08T00:02:14.001Z,53.29
2023-02-08T00:03:13.974Z,53.19
2023-02-08T00:04:13.981Z,53.19
2023-02-08T00:05:13.981Z,53.00
2023-02-08T00:06:13.974Z,53.19
2023-02-08T00:07:13.981Z,53.29
2023-02-08T00:08:13.983Z,53.19
2023-02-08T00:09:13.982Z,53.10
2023-02-08T00:10:13.984Z,53.29
2023-02-08T00:11:13.986Z,53.38
2023-02-08T00:12:13.981Z,53.38
2023-02-08T00:13:13.984Z,53.10
2023-02-08T00:14:13.985Z,53.19
2023-02-08T00:15:13.988Z,53.47
2023-02-08T00:16:14.148Z,53.38
2023-02-08T00:17:13.993Z,53.29
2023-02-08T00:18:14.013Z,53.19
2023-02-08T00:19:13.989Z,53.19
2023-02-08T00:20:13.997Z,53.19
2023-02-08T00:21:13.992Z,53.19
2023-02-08T00:22:13.992Z,53.47
2023-02-08T00:23:13.992Z,53.76
2023-02-08T00:24:13.999Z,54.51
2023-02-08T00:25:13.999Z,54.80
2023-02-08T00:26:14.004Z,55.18
2023-02-08T00:27:13.995Z,55.08
2023-02-08T00:28:14.114Z,55.18
2023-02-08T00:29:14.001Z,55.27
2023-02-08T00:30:14.003Z,55.55
2023-02-08T00:31:14.167Z,55.46
2023-02-08T00:32:13.997Z,56.40
2023-02-08T00:33:13.995Z,56.12
2023-02-08T00:34:14.017Z,56.21
2023-02-08T00:35:14.003Z,56.49
2023-02-08T00:36:14.008Z,57.25
2023-02-08T00:37:13.996Z,57.53
2023-02-08T00:38:14.004Z,57.91
2023-02-08T00:39:14.006Z,57.91
2023-02-08T00:40:14.001Z,58.47
2023-02-08T00:41:14.013Z,58.66
2023-02-08T00:42:14.023Z,58.76
2023-02-08T00:43:14.003Z,58.76
2023-02-08T00:44:14.002Z,58.76
2023-02-08T00:45:14.020Z,59.33
2023-02-08T00:46:14.056Z,58.47
2023-02-08T00:47:14.002Z,58.76
2023-02-08T00:48:14.009Z,59.42
2023-02-08T00:49:14.002Z,59.14
2023-02-08T00:50:14.035Z,59.04
2023-02-08T00:51:14.049Z,59.23
2023-02-08T00:52:14.007Z,59.14
2023-02-08T00:53:14.003Z,59.42
2023-02-08T00:54:14.006Z,59.14
2023-02-08T00:55:14.004Z,59.61
2023-02-08T00:56:14.012Z,59.61
2023-02-08T00:57:14.010Z,59.51
2023-02-08T00:58:14.010Z,59.61
2023-02-08T00:59:14.004Z,59.33
2023-02-08T01:00:14.081Z,59.23
2023-02-08T01:01:14.119Z,59.51
2023-02-08T01:02:14.030Z,59.51
2023-02-08T01:03:14.010Z,59.89
2023-02-08T01:04:14.011Z,59.51
2023-02-08T01:05:14.007Z,59.61
2023-02-08T01:06:14.031Z,59.33
2023-02-08T01:07:14.043Z,59.42
2023-02-08T01:08:14.020Z,59.51
2023-02-08T01:09:14.010Z,59.51
2023-02-08T01:10:14.016Z,59.51
2023-02-08T01:11:14.010Z,59.42
2023-02-08T01:12:14.016Z,59.70
2023-02-08T01:13:14.011Z,59.51
2023-02-08T01:14:14.021Z,59.33
2023-02-08T01:15:14.015Z,59.42
2023-02-08T01:16:14.112Z,59.51
2023-02-08T01:17:14.013Z,59.51
2023-02-08T01:18:14.017Z,59.42
2023-02-08T01:19:14.012Z,59.80
2023-02-08T01:20:14.022Z,60.08
2023-02-08T01:21:14.013Z,60.17
2023-02-08T01:22:14.035Z,59.89
2023-02-08T01:23:14.021Z,60.46
2023-02-08T01:24:14.039Z,60.36
2023-02-08T01:25:14.017Z,60.55
2023-02-08T01:26:14.019Z,60.08
2023-02-08T01:27:14.019Z,60.17
2023-02-08T01:28:14.065Z,60.36
2023-02-08T01:29:14.016Z,60.46
2023-02-08T01:30:14.020Z,60.36
2023-02-08T01:31:14.089Z,60.36
2023-02-08T01:32:14.020Z,59.89
2023-02-08T01:33:14.017Z,60.08
2023-02-08T01:34:14.018Z,60.55
2023-02-08T01:35:14.017Z,60.55
2023-02-08T01:36:14.050Z,60.46
2023-02-08T01:37:14.065Z,60.46
2023-02-08T01:38:14.041Z,60.46
2023-02-08T01:39:14.022Z,60.74
2023-02-08T01:40:14.033Z,60.83
2023-02-08T01:41:14.018Z,60.36
2023-02-08T01:42:14.026Z,60.46
2023-02-08T01:43:14.021Z,60.74
2023-02-08T01:44:14.020Z,61.21
2023-02-08T01:45:14.019Z,60.83
2023-02-08T01:46:14.023Z,60.83
2023-02-08T01:47:14.026Z,61.11
2023-02-08T01:48:14.025Z,61.77
2023-02-08T01:49:14.025Z,61.77
2023-02-08T01:50:14.023Z,62.06
2023-02-08T01:51:14.040Z,61.49
2023-02-08T01:52:14.026Z,61.96
2023-02-08T01:53:14.021Z,61.58
2023-02-08T01:54:14.045Z,61.77
2023-02-08T01:55:14.020Z,62.06
2023-02-08T01:56:14.022Z,61.58
2023-02-08T01:57:14.020Z,62.25
2023-02-08T01:58:14.027Z,61.87
2023-02-08T01:59:14.020Z,61.58
2023-02-08T02:00:14.045Z,61.49
2023-02-08T02:01:14.079Z,61.21
2023-02-08T02:02:14.022Z,60.83
2023-02-08T02:03:14.019Z,61.02
2023-02-08T02:04:14.052Z,61.02
2023-02-08T02:05:14.031Z,60.93
2023-02-08T02:06:14.027Z,60.74
2023-02-08T02:07:14.028Z,61.11
2023-02-08T02:08:14.023Z,61.21
2023-02-08T02:09:14.020Z,61.21
2023-02-08T02:10:14.045Z,61.02
2023-02-08T02:11:14.020Z,61.21
2023-02-08T02:12:14.036Z,61.40
2023-02-08T02:13:14.024Z,61.49
2023-02-08T02:14:14.029Z,61.58
2023-02-08T02:15:14.021Z,61.58
2023-02-08T02:16:14.032Z,61.77
2023-02-08T02:17:14.019Z,61.49
2023-02-08T02:18:14.032Z,61.68
2023-02-08T02:19:14.025Z,61.77
2023-02-08T02:20:14.027Z,61.58
2023-02-08T02:21:14.022Z,61.40
2023-02-08T02:22:14.029Z,61.87
2023-02-08T02:23:14.026Z,61.58
2023-02-08T02:24:14.027Z,61.30
2023-02-08T02:25:14.021Z,61.21
2023-02-08T02:26:14.044Z,61.30
2023-02-08T02:27:14.029Z,61.77
2023-02-08T02:28:14.147Z,61.87
2023-02-08T02:29:14.072Z,61.68
2023-02-08T02:30:14.062Z,61.87
2023-02-08T02:31:14.231Z,62.25
2023-02-08T02:32:14.025Z,62.25
2023-02-08T02:33:14.031Z,62.25
2023-02-08T02:34:14.038Z,61.87
2023-02-08T02:35:14.021Z,62.62
2023-02-08T02:36:14.024Z,62.62
2023-02-08T02:37:14.022Z,62.62
2023-02-08T02:38:14.022Z,62.53
2023-02-08T02:39:14.018Z,62.72
2023-02-08T02:40:14.028Z,62.81
2023-02-08T02:41:14.018Z,62.62
2023-02-08T02:42:14.045Z,62.43
2023-02-08T02:43:14.020Z,63.35
2023-02-08T02:44:14.021Z,63.10
2023-02-08T02:45:14.026Z,62.81
2023-02-08T02:46:14.083Z,63.10
2023-02-08T02:47:14.020Z,63.29
2023-02-08T02:48:14.023Z,62.91
2023-02-08T02:49:14.021Z,62.97
2023-02-08T02:50:14.026Z,62.97
2023-02-08T02:51:14.021Z,62.97
2023-02-08T02:52:14.025Z,62.91
2023-02-08T02:53:14.020Z,62.91
2023-02-08T02:54:14.023Z,62.40
2023-02-08T02:55:14.030Z,62.72
2023-02-08T02:56:14.024Z,62.53
2023-02-08T02:57:14.021Z,62.06
2023-02-08T02:58:14.047Z,61.49
2023-02-08T02:59:14.024Z,61.84
2023-02-08T03:00:14.042Z,61.55
2023-02-08T03:01:14.061Z,61.58
2023-02-08T03:02:14.037Z,61.65
2023-02-08T03:03:14.022Z,61.68
2023-02-08T03:04:14.052Z,61.58
2023-02-08T03:05:14.042Z,61.68
2023-02-08T03:06:14.026Z,61.68
2023-02-08T03:07:14.022Z,61.49
2023-02-08T03:08:14.035Z,61.58
2023-02-08T03:09:14.018Z,61.68
2023-02-08T03:10:14.024Z,61.58
2023-02-08T03:11:14.026Z,61.58
2023-02-08T03:12:14.032Z,61.49
2023-02-08T03:13:14.022Z,61.40
2023-02-08T03:14:14.045Z,61.77
2023-02-08T03:15:14.029Z,61.49
2023-02-08T03:16:14.035Z,61.58
2023-02-08T03:17:14.026Z,61.77
2023-02-08T03:18:14.029Z,62.34
2023-02-08T03:19:14.021Z,62.25
2023-02-08T03:20:14.030Z,62.31
2023-02-08T03:21:14.020Z,62.03
2023-02-08T03:22:14.036Z,62.34
2023-02-08T03:23:14.025Z,62.59
2023-02-08T03:24:14.021Z,62.69
2023-02-08T03:25:14.018Z,62.40
2023-02-08T03:26:14.029Z,62.12
2023-02-08T03:27:14.021Z,62.40
2023-02-08T03:28:14.048Z,62.03
2023-02-08T03:29:14.019Z,61.74
2023-02-08T03:30:14.046Z,62.03
2023-02-08T03:31:14.116Z,61.65
2023-02-08T03:32:14.023Z,62.21
2023-02-08T03:33:14.021Z,61.46
2023-02-08T03:34:14.022Z,62.21
2023-02-08T03:35:14.015Z,62.03
2023-02-08T03:36:14.019Z,62.12
2023-02-08T03:37:14.016Z,61.46
2023-02-08T03:38:14.017Z,61.84
2023-02-08T03:39:14.018Z,61.46
2023-02-08T03:40:14.020Z,62.03
2023-02-08T03:41:14.015Z,62.21
2023-02-08T03:42:14.019Z,61.65
2023-02-08T03:43:14.019Z,61.65
2023-02-08T03:44:14.022Z,61.65
2023-02-08T03:45:14.012Z,62.21
2023-02-08T03:46:14.091Z,61.65
2023-02-08T03:47:14.018Z,61.11
2023-02-08T03:48:14.050Z,60.99
2023-02-08T03:49:14.010Z,60.74
2023-02-08T03:50:14.016Z,60.83
2023-02-08T03:51:14.012Z,61.21
2023-02-08T03:52:14.015Z,60.64
2023-02-08T03:53:14.010Z,60.64
2023-02-08T03:54:14.011Z,60.83
2023-02-08T03:55:14.013Z,60.64
2023-02-08T03:56:14.009Z,60.55
2023-02-08T03:57:14.010Z,60.46
2023-02-08T03:58:14.015Z,60.64
2023-02-08T03:59:14.008Z,60.17
2023-02-08T04:00:14.021Z,59.51
2023-02-08T04:01:14.049Z,59.70
2023-02-08T04:02:14.048Z,59.14
2023-02-08T04:03:14.003Z,59.33
2023-02-08T04:04:14.020Z,59.51
2023-02-08T04:05:14.005Z,60.17
2023-02-08T04:06:14.011Z,60.08
2023-02-08T04:07:14.017Z,60.17
2023-02-08T04:08:14.005Z,60.27
2023-02-08T04:09:14.015Z,59.89
2023-02-08T04:10:14.007Z,60.17
2023-02-08T04:11:14.001Z,60.27
2023-02-08T04:12:14.004Z,60.27
2023-02-08T04:13:14.003Z,59.61
2023-02-08T04:14:14.004Z,59.61
2023-02-08T04:15:14.007Z,59.89
2023-02-08T04:16:14.002Z,59.80
2023-02-08T04:17:14.002Z,59.70
2023-02-08T04:18:14.027Z,59.80
2023-02-08T04:19:14.003Z,59.42
2023-02-08T04:20:14.002Z,59.61
2023-02-08T04:21:14.014Z,59.42
2023-02-08T04:22:14.015Z,59.61
2023-02-08T04:23:13.996Z,59.51
2023-02-08T04:24:14.002Z,59.33
2023-02-08T04:25:13.995Z,59.04
2023-02-08T04:26:13.999Z,58.95
2023-02-08T04:27:13.996Z,59.23
2023-02-08T04:28:14.234Z,59.04
2023-02-08T04:29:14.004Z,59.04
2023-02-08T04:30:14.005Z,59.04
2023-02-08T04:31:14.166Z,59.04
2023-02-08T04:32:14.012Z,59.33
2023-02-08T04:33:14.002Z,59.04
2023-02-08T04:34:14.019Z,59.14
2023-02-08T04:35:14.007Z,59.70
2023-02-08T04:36:14.000Z,59.33
2023-02-08T04:37:14.024Z,59.51
2023-02-08T04:38:14.000Z,59.61
2023-02-08T04:39:14.019Z,60.27
2023-02-08T04:40:14.017Z,59.80
2023-02-08T04:41:14.010Z,59.33
2023-02-08T04:42:14.002Z,59.14
2023-02-08T04:43:14.008Z,59.33
2023-02-08T04:44:13.997Z,58.76
2023-02-08T04:45:14.004Z,58.66
2023-02-08T04:46:14.015Z,58.76
2023-02-08T04:47:14.000Z,58.95
2023-02-08T04:48:13.998Z,59.14
2023-02-08T04:49:14.004Z,59.23
2023-02-08T04:50:14.022Z,59.61
2023-02-08T04:51:14.014Z,59.42
2023-02-08T04:52:14.003Z,59.51
2023-02-08T04:53:14.002Z,58.57
2023-02-08T04:54:13.997Z,58.76
2023-02-08T04:55:14.004Z,59.04
2023-02-08T04:56:13.997Z,58.57
2023-02-08T04:57:14.014Z,58.00
2023-02-08T04:58:13.997Z,57.43
2023-02-08T04:59:14.007Z,56.68
2023-02-08T05:00:14.029Z,56.49
2023-02-08T05:01:14.030Z,56.49
2023-02-08T05:02:13.998Z,57.53
2023-02-08T05:03:13.999Z,57.06
2023-02-08T05:04:13.999Z,57.81
2023-02-08T05:05:14.043Z,57.81
2023-02-08T05:06:14.022Z,58.57
2023-02-08T05:07:14.002Z,58.85
2023-02-08T05:08:13.999Z,59.04
2023-02-08T05:09:13.998Z,59.14
2023-02-08T05:10:13.994Z,58.66
2023-02-08T05:11:14.014Z,58.85
2023-02-08T05:12:13.991Z,58.76
2023-02-08T05:13:14.001Z,58.85
2023-02-08T05:14:13.996Z,58.47
2023-02-08T05:15:13.997Z,58.63
2023-02-08T05:16:14.030Z,58.66
2023-02-08T05:17:13.992Z,59.23
2023-02-08T05:18:13.993Z,58.85
2023-02-08T05:19:13.995Z,58.95
2023-02-08T05:20:13.989Z,58.73
2023-02-08T05:21:14.003Z,59.14
2023-02-08T05:22:14.014Z,59.11
2023-02-08T05:23:13.995Z,58.73
2023-02-08T05:24:14.006Z,58.76
2023-02-08T05:25:13.994Z,59.04
2023-02-08T05:26:13.994Z,59.11
2023-02-08T05:27:14.001Z,58.73
2023-02-08T05:28:14.001Z,58.73
2023-02-08T05:29:14.003Z,59.20
2023-02-08T05:30:13.993Z,58.73
2023-02-08T05:31:14.110Z,59.01
2023-02-08T05:32:14.002Z,58.82
2023-02-08T05:33:13.993Z,58.92
2023-02-08T05:34:13.990Z,59.39
2023-02-08T05:35:13.992Z,59.39
2023-02-08T05:36:13.989Z,59.58
2023-02-08T05:37:13.991Z,59.58
2023-02-08T05:38:14.006Z,59.58
2023-02-08T05:39:13.989Z,59.30
2023-02-08T05:40:13.982Z,59.48
2023-02-08T05:41:13.991Z,59.20
2023-02-08T05:42:14.000Z,59.48
2023-02-08T05:43:13.985Z,58.82
2023-02-08T05:44:13.983Z,59.20
2023-02-08T05:45:13.987Z,59.20
2023-02-08T05:46:13.981Z,59.01
2023-02-08T05:47:13.983Z,59.20
2023-02-08T05:48:13.984Z,58.92
2023-02-08T05:49:13.981Z,59.58
2023-02-08T05:50:13.982Z,59.58
2023-02-08T05:51:13.990Z,59.48
2023-02-08T05:52:13.982Z,59.48
2023-02-08T05:53:13.983Z,59.67
2023-02-08T05:54:13.999Z,60.05
2023-02-08T05:55:13.984Z,60.14
2023-02-08T05:56:13.996Z,59.95
2023-02-08T05:57:13.981Z,59.48
2023-02-08T05:58:13.976Z,59.39
2023-02-08T05:59:14.015Z,58.73
2023-02-08T06:00:13.975Z,59.11
2023-02-08T06:01:13.980Z,59.30
2023-02-08T06:02:13.975Z,59.48
2023-02-08T06:03:14.078Z,59.48
2023-02-08T06:04:14.088Z,59.39
2023-02-08T06:05:13.988Z,59.30
2023-02-08T06:06:13.986Z,59.39
2023-02-08T06:07:13.977Z,59.67
2023-02-08T06:08:13.972Z,59.01
2023-02-08T06:09:13.977Z,59.20
2023-02-08T06:10:13.991Z,58.92
2023-02-08T06:11:13.986Z,58.92
2023-02-08T06:12:13.970Z,59.11
2023-02-08T06:13:13.978Z,59.20
2023-02-08T06:14:13.977Z,59.67
2023-02-08T06:15:13.984Z,59.48
2023-02-08T06:16:13.972Z,59.95
2023-02-08T06:17:13.973Z,59.77
2023-02-08T06:18:13.970Z,59.67
2023-02-08T06:19:13.975Z,60.14
2023-02-08T06:20:13.965Z,60.24
2023-02-08T06:21:13.970Z,60.24
2023-02-08T06:22:13.968Z,60.42
2023-02-08T06:23:13.971Z,60.24
2023-02-08T06:24:13.997Z,59.58
2023-02-08T06:25:13.979Z,59.48
2023-02-08T06:26:13.994Z,59.39
2023-02-08T06:27:13.989Z,59.39
2023-02-08T06:28:14.160Z,59.30
2023-02-08T06:29:13.979Z,59.48
2023-02-08T06:30:13.984Z,59.30
2023-02-08T06:31:14.004Z,59.48
2023-02-08T06:32:14.065Z,59.48
2023-02-08T06:33:15.812Z,59.77
2023-02-08T06:34:13.966Z,60.24
2023-02-08T06:35:13.965Z,60.14
2023-02-08T06:36:13.978Z,60.14
2023-02-08T06:37:13.967Z,60.05
2023-02-08T06:38:13.962Z,59.39
2023-02-08T06:39:13.969Z,59.20
2023-02-08T06:40:13.972Z,59.30
2023-02-08T06:41:13.967Z,59.48
2023-02-08T06:42:13.980Z,59.86
2023-02-08T06:43:13.963Z,59.67
2023-02-08T06:44:13.958Z,59.30
2023-02-08T06:45:13.972Z,59.48
2023-02-08T06:46:13.957Z,59.48
2023-02-08T06:47:13.962Z,59.30
2023-02-08T06:48:13.962Z,59.77
2023-02-08T06:49:13.960Z,60.24
2023-02-08T06:50:13.958Z,59.48
2023-02-08T06:51:13.960Z,58.92
2023-02-08T06:52:13.956Z,58.92
2023-02-08T06:53:14.061Z,58.45
2023-02-08T06:54:13.968Z,58.82
2023-02-08T06:55:13.959Z,58.73
2023-02-08T06:56:13.957Z,58.63
2023-02-08T06:57:13.961Z,59.11
2023-02-08T06:58:14.116Z,59.39
2023-02-08T06:59:13.959Z,59.77
2023-02-08T07:00:13.955Z,60.24
2023-02-08T07:01:14.038Z,59.77
2023-02-08T07:02:13.966Z,59.86
2023-02-08T07:03:13.957Z,59.67
2023-02-08T07:04:13.952Z,59.77
2023-02-08T07:05:13.961Z,59.86
2023-02-08T07:06:13.975Z,59.77
2023-02-08T07:07:13.956Z,59.48
2023-02-08T07:08:13.954Z,59.39
2023-02-08T07:09:13.959Z,59.39
2023-02-08T07:10:13.956Z,59.58
2023-02-08T07:11:13.955Z,59.01
2023-02-08T07:12:13.953Z,58.92
2023-02-08T07:13:13.955Z,57.88
2023-02-08T07:14:13.986Z,57.50
2023-02-08T07:15:13.959Z,56.59
2023-02-08T07:16:13.976Z,56.46
2023-02-08T07:17:13.972Z,56.59
2023-02-08T07:18:13.951Z,56.65
2023-02-08T07:19:13.952Z,56.75
2023-02-08T07:20:13.951Z,56.65
2023-02-08T07:21:14.002Z,56.93
2023-02-08T07:22:13.968Z,57.41
2023-02-08T07:23:13.958Z,57.69
2023-02-08T07:24:13.957Z,57.50
2023-02-08T07:25:13.969Z,57.22
2023-02-08T07:26:13.963Z,57.12
2023-02-08T07:27:13.962Z,57.31
2023-02-08T07:28:13.956Z,57.50
2023-02-08T07:29:13.957Z,57.12
2023-02-08T07:30:13.988Z,57.31
2023-02-08T07:31:13.956Z,56.75
2023-02-08T07:32:14.026Z,57.31
2023-02-08T07:33:13.955Z,56.46
2023-02-08T07:34:13.948Z,56.59
2023-02-08T07:35:13.958Z,56.40
2023-02-08T07:36:13.950Z,56.30
2023-02-08T07:37:13.962Z,56.09
2023-02-08T07:38:13.946Z,55.93
2023-02-08T07:39:13.952Z,55.93
2023-02-08T07:40:13.948Z,55.65
2023-02-08T07:41:13.953Z,55.36
2023-02-08T07:42:13.949Z,55.18
2023-02-08T07:43:13.953Z,55.36
2023-02-08T07:44:13.957Z,55.27
2023-02-08T07:45:13.955Z,55.65
2023-02-08T07:46:14.065Z,55.74
2023-02-08T07:47:13.951Z,56.12
2023-02-08T07:48:13.970Z,56.30
2023-02-08T07:49:13.954Z,55.93
2023-02-08T07:50:13.951Z,56.12
2023-02-08T07:51:13.953Z,55.93
2023-02-08T07:52:13.952Z,56.02
2023-02-08T07:53:13.954Z,56.40
2023-02-08T07:54:13.953Z,56.59
2023-02-08T07:55:13.954Z,56.30
2023-02-08T07:56:13.958Z,56.40
2023-02-08T07:57:13.953Z,56.30
2023-02-08T07:58:13.953Z,56.49
2023-02-08T07:59:13.951Z,56.40
2023-02-08T08:00:13.948Z,56.59
2023-02-08T08:01:21.848Z,55.83
2023-02-08T08:02:13.969Z,55.93
2023-02-08T08:03:13.955Z,55.83
2023-02-08T08:04:14.050Z,55.83
2023-02-08T08:05:13.953Z,55.27
2023-02-08T08:06:13.981Z,55.18
2023-02-08T08:07:13.961Z,55.36
2023-02-08T08:08:13.960Z,55.55
2023-02-08T08:09:13.953Z,55.74
2023-02-08T08:10:13.949Z,55.65
2023-02-08T08:11:13.975Z,55.46
2023-02-08T08:12:13.952Z,55.46
2023-02-08T08:13:13.951Z,55.55
2023-02-08T08:14:13.951Z,55.83
2023-02-08T08:15:13.951Z,55.93
2023-02-08T08:16:13.974Z,55.93
2023-02-08T08:17:13.960Z,55.93
2023-02-08T08:18:13.971Z,55.93
2023-02-08T08:19:13.956Z,55.93
2023-02-08T08:20:13.949Z,55.74
2023-02-08T08:21:13.966Z,55.74
2023-02-08T08:22:13.951Z,54.99
2023-02-08T08:23:13.954Z,55.18
2023-02-08T08:24:13.951Z,55.93
2023-02-08T08:25:13.955Z,56.77
2023-02-08T08:26:13.986Z,57.15
2023-02-08T08:27:13.966Z,58.60
2023-02-08T08:28:14.069Z,57.65
2023-02-08T08:29:13.957Z,55.96
2023-02-08T08:30:13.958Z,55.67
2023-02-08T08:31:14.067Z,56.52
2023-02-08T08:32:13.951Z,57.75
2023-02-08T08:33:14.024Z,58.50
2023-02-08T08:34:14.002Z,58.50
2023-02-08T08:35:13.958Z,58.79
2023-02-08T08:36:13.960Z,58.63
2023-02-08T08:37:13.956Z,58.72
2023-02-08T08:38:13.981Z,57.21
2023-02-08T08:39:13.959Z,56.84
2023-02-08T08:40:13.966Z,56.08
2023-02-08T08:41:13.963Z,55.32
2023-02-08T08:42:13.969Z,55.51
2023-02-08T08:43:13.967Z,56.36
2023-02-08T08:44:13.959Z,54.47
2023-02-08T08:45:13.978Z,52.59
2023-02-08T08:46:14.004Z,52.78
2023-02-08T08:47:13.967Z,52.49
2023-02-08T08:48:13.992Z,53.15
2023-02-08T08:49:13.962Z,51.73
2023-02-08T08:50:13.989Z,50.89
2023-02-08T08:51:13.966Z,49.94
2023-02-08T08:52:13.977Z,49.47
2023-02-08T08:53:13.967Z,50.04
2023-02-08T08:54:13.978Z,50.51
2023-02-08T08:55:13.968Z,50.98
2023-02-08T08:56:13.971Z,51.07
2023-02-08T08:57:13.970Z,50.23
2023-02-08T08:58:13.975Z,50.23
2023-02-08T08:59:13.970Z,50.70
2023-02-08T09:00:13.996Z,50.60
2023-02-08T09:01:14.007Z,49.57
2023-02-08T09:02:13.978Z,50.13
2023-02-08T09:03:14.040Z,49.66
2023-02-08T09:04:14.091Z,48.15
2023-02-08T09:05:13.979Z,47.49
2023-02-08T09:06:14.008Z,47.96
2023-02-08T09:07:13.976Z,49.28
2023-02-08T09:08:13.984Z,48.52
2023-02-08T09:09:13.987Z,47.77
2023-02-08T09:10:13.989Z,48.52
2023-02-08T09:11:13.978Z,49.28
2023-02-08T09:12:13.985Z,49.66
2023-02-08T09:13:14.065Z,50.06
2023-02-08T09:14:13.989Z,50.16
2023-02-08T09:15:13.985Z,50.16
2023-02-08T09:16:14.113Z,49.21
2023-02-08T09:17:13.988Z,48.46
2023-02-08T09:18:13.992Z,49.30
2023-02-08T09:19:13.991Z,48.74
2023-02-08T09:20:13.995Z,48.74
2023-02-08T09:21:13.995Z,49.21
2023-02-08T09:22:14.022Z,49.40
2023-02-08T09:23:13.993Z,49.49
2023-02-08T09:24:13.998Z,49.30
2023-02-08T09:25:13.994Z,48.24
2023-02-08T09:26:14.008Z,48.34
2023-02-08T09:27:13.999Z,48.74
2023-02-08T09:28:14.021Z,49.11
2023-02-08T09:29:14.006Z,49.21
2023-02-08T09:30:14.005Z,48.74
2023-02-08T09:31:14.080Z,47.39
2023-02-08T09:32:14.082Z,47.42
2023-02-08T09:33:14.012Z,48.18
2023-02-08T09:34:14.020Z,50.44
2023-02-08T09:35:14.024Z,51.60
2023-02-08T09:36:14.016Z,51.98
2023-02-08T09:37:14.014Z,51.03
2023-02-08T09:38:14.048Z,49.02
2023-02-08T09:39:14.020Z,48.76
2023-02-08T09:40:14.025Z,48.48
2023-02-08T09:41:14.034Z,48.39
2023-02-08T09:42:14.032Z,47.80
2023-02-08T09:43:14.029Z,46.85
2023-02-08T09:44:14.069Z,46.94
2023-02-08T09:45:14.032Z,47.04
2023-02-08T09:46:14.043Z,48.10
2023-02-08T09:47:14.037Z,48.29
2023-02-08T09:48:14.046Z,47.91
2023-02-08T09:49:14.041Z,48.20
2023-02-08T09:50:14.058Z,48.20
2023-02-08T09:51:14.045Z,46.97
2023-02-08T09:52:14.054Z,46.88
2023-02-08T09:53:14.055Z,46.78
2023-02-08T09:54:14.082Z,46.40
2023-02-08T09:55:14.056Z,44.79
2023-02-08T09:56:14.076Z,45.55
2023-02-08T09:57:14.062Z,46.80
2023-02-08T09:58:14.074Z,46.80
2023-02-08T09:59:14.072Z,45.45
2023-02-08T10:00:14.074Z,44.89
2023-02-08T10:01:14.094Z,44.51
2023-02-08T10:02:14.074Z,44.32
2023-02-08T10:03:14.092Z,44.23
2023-02-08T10:04:14.081Z,44.32
2023-02-08T10:05:14.082Z,44.98
2023-02-08T10:06:14.094Z,45.27
2023-02-08T10:07:14.186Z,45.55
2023-02-08T10:08:14.089Z,45.08
2023-02-08T10:09:14.090Z,44.51
2023-02-08T10:10:14.118Z,44.06
2023-02-08T10:11:14.100Z,45.20
2023-02-08T10:12:14.102Z,45.57
2023-02-08T10:13:14.108Z,44.91
2023-02-08T10:14:14.108Z,44.63
2023-02-08T10:15:14.114Z,45.20
2023-02-08T10:16:14.134Z,45.29
2023-02-08T10:17:14.123Z,45.03
2023-02-08T10:18:14.167Z,43.96
2023-02-08T10:19:14.121Z,43.00
2023-02-08T10:20:14.131Z,43.57
2023-02-08T10:21:14.193Z,44.42
2023-02-08T10:22:14.134Z,45.64
2023-02-08T10:23:14.849Z,45.86
2023-02-08T10:24:14.143Z,45.39
2023-02-08T10:25:14.164Z,45.48
2023-02-08T10:26:14.174Z,43.68
2023-02-08T10:27:14.156Z,42.83
2023-02-08T10:28:14.242Z,42.74
2023-02-08T10:29:14.168Z,43.40
2023-02-08T10:30:14.196Z,42.74
2023-02-08T10:31:14.316Z,43.90
2023-02-08T10:32:14.168Z,44.18
2023-02-08T10:33:14.169Z,44.06
2023-02-08T10:34:14.245Z,44.27
2023-02-08T10:35:14.184Z,44.65
2023-02-08T10:36:14.183Z,45.31
2023-02-08T10:37:14.188Z,46.45
2023-02-08T10:38:14.193Z,45.41
2023-02-08T10:39:14.197Z,45.69
2023-02-08T10:40:14.222Z,45.50
2023-02-08T10:41:14.202Z,45.41
2023-02-08T10:42:14.241Z,45.69
2023-02-08T10:43:14.217Z,46.55
2023-02-08T10:44:14.285Z,46.37
2023-02-08T10:45:23.897Z,45.81
2023-02-08T10:46:14.282Z,45.72
2023-02-08T10:47:14.228Z,45.03
2023-02-08T10:48:14.239Z,44.37
2023-02-08T10:49:14.233Z,44.93
2023-02-08T10:50:14.241Z,45.60
2023-02-08T10:51:14.254Z,45.20
2023-02-08T10:52:14.321Z,44.56
2023-02-08T10:53:14.255Z,44.56
2023-02-08T10:54:14.261Z,45.31
2023-02-08T10:55:14.266Z,45.69
2023-02-08T10:56:14.269Z,44.91
2023-02-08T10:57:14.272Z,45.60
2023-02-08T10:58:14.324Z,46.73
2023-02-08T10:59:14.293Z,46.37
2023-02-08T11:00:14.291Z,46.94
2023-02-08T11:01:14.330Z,47.04
2023-02-08T11:02:14.303Z,45.12
2023-02-08T11:03:14.301Z,43.33
2023-02-08T11:04:14.382Z,43.23
2023-02-08T11:05:14.331Z,43.71
2023-02-08T11:06:14.331Z,44.09
2023-02-08T11:07:14.331Z,45.50
2023-02-08T11:08:14.330Z,47.20
2023-02-08T11:09:14.327Z,47.80
2023-02-08T11:10:14.336Z,46.85
2023-02-08T11:11:14.343Z,46.85
2023-02-08T11:12:14.345Z,45.34
2023-02-08T11:13:14.368Z,44.48
2023-02-08T11:14:14.378Z,43.91
2023-02-08T11:15:14.375Z,43.27
2023-02-08T11:16:14.420Z,41.64
2023-02-08T11:17:14.374Z,42.40
2023-02-08T11:18:14.378Z,43.35
2023-02-08T11:19:14.392Z,43.14
2023-02-08T11:20:14.392Z,42.85
2023-02-08T11:21:14.391Z,43.90
2023-02-08T11:22:14.403Z,44.39
2023-02-08T11:23:14.408Z,45.43
2023-02-08T11:24:14.413Z,46.17
2023-02-08T11:25:14.593Z,46.85
2023-02-08T11:26:14.428Z,49.43
2023-02-08T11:27:14.436Z,48.01
2023-02-08T11:28:14.498Z,46.56
2023-02-08T11:29:14.438Z,45.53
2023-02-08T11:30:14.473Z,45.53
2023-02-08T11:31:14.581Z,46.66
2023-02-08T11:32:14.459Z,45.98
2023-02-08T11:33:14.466Z,46.75
2023-02-08T11:34:14.483Z,46.55
2023-02-08T11:35:14.492Z,46.28
2023-02-08T11:36:14.478Z,48.36
2023-02-08T11:37:14.485Z,46.75
2023-02-08T11:38:14.494Z,45.50
2023-02-08T11:39:14.494Z,47.61
2023-02-08T11:40:14.557Z,48.08
2023-02-08T11:41:14.507Z,47.32
2023-02-08T11:42:14.517Z,46.56
2023-02-08T11:43:14.517Z,46.37
2023-02-08T11:44:14.527Z,45.69
2023-02-08T11:45:14.526Z,46.85
2023-02-08T11:46:14.581Z,46.92
2023-02-08T11:47:14.545Z,47.49
2023-02-08T11:48:14.550Z,47.49
2023-02-08T11:49:14.551Z,47.68
2023-02-08T11:50:14.594Z,47.68
2023-02-08T11:51:14.560Z,47.02
2023-02-08T11:52:14.572Z,47.80
2023-02-08T11:53:14.583Z,48.18
2023-02-08T11:54:14.582Z,47.51
2023-02-08T11:55:14.590Z,46.09
2023-02-08T11:56:14.618Z,47.32
2023-02-08T11:57:14.604Z,48.20
2023-02-08T11:58:14.612Z,48.29
2023-02-08T11:59:14.609Z,48.01
2023-02-08T12:00:14.664Z,47.70
2023-02-08T12:01:14.618Z,47.42
2023-02-08T12:02:14.683Z,46.55
2023-02-08T12:03:14.694Z,47.68
2023-02-08T12:04:14.659Z,48.74
2023-02-08T12:05:14.639Z,47.39
2023-02-08T12:06:14.653Z,47.68
2023-02-08T12:07:14.657Z,49.50
2023-02-08T12:08:14.660Z,49.69
2023-02-08T12:09:14.666Z,48.46
2023-02-08T12:10:14.802Z,49.50
2023-02-08T12:11:14.685Z,49.50
2023-02-08T12:12:14.680Z,47.89
2023-02-08T12:13:14.685Z,46.56
2023-02-08T12:14:14.706Z,47.13
2023-02-08T12:15:14.696Z,47.99
2023-02-08T12:16:14.787Z,48.27
2023-02-08T12:17:14.711Z,47.89
2023-02-08T12:18:14.738Z,47.70
2023-02-08T12:19:14.717Z,47.89
2023-02-08T12:20:14.808Z,48.08
2023-02-08T12:21:14.749Z,47.80
2023-02-08T12:22:14.741Z,48.18
2023-02-08T12:23:14.739Z,46.73
2023-02-08T12:24:14.765Z,47.80
2023-02-08T12:25:14.771Z,48.18
2023-02-08T12:26:14.758Z,47.42
2023-02-08T12:27:17.152Z,46.75
2023-02-08T12:28:14.800Z,46.78
2023-02-08T12:29:14.777Z,46.28
2023-02-08T12:30:14.793Z,46.28
2023-02-08T12:31:14.911Z,47.34
2023-02-08T12:32:14.788Z,47.44
2023-02-08T12:33:17.045Z,46.28
2023-02-08T12:34:14.825Z,45.53
2023-02-08T12:35:14.825Z,47.80
2023-02-08T12:36:14.833Z,47.70
2023-02-08T12:37:14.815Z,47.49
2023-02-08T12:38:14.822Z,48.15
2023-02-08T12:39:19.882Z,48.84
2023-02-08T12:40:14.835Z,48.25
2023-02-08T12:41:14.839Z,48.46
2023-02-08T12:42:14.842Z,48.18
2023-02-08T12:43:14.846Z,48.86
2023-02-08T12:44:14.859Z,48.32
2023-02-08T12:45:17.460Z,46.88
2023-02-08T12:46:14.947Z,46.31
2023-02-08T12:47:14.874Z,45.55
2023-02-08T12:48:14.880Z,45.74
2023-02-08T12:49:14.884Z,45.64
2023-02-08T12:50:15.011Z,47.25
2023-02-08T12:51:14.898Z,46.69
2023-02-08T12:52:14.906Z,47.09